Two Gray Hills, New Mexico
Current Conditions -  °F | °C
As of 7:53 PM on Wednesday 22 Oct 2014 (Local Time) from KGUP Reporting Station
Clear Clear  
Wind Chill: 53°   Ceiling: Unl
Heat Index: 53°   Visibility: 10mi
Dew Point: 37°   Wind: 3mph
Humidity: 55%   Direction: 220°SW
Pressure: 30.23"   Gusts: NA
Location:  35.8166°N, 108.573°W
Report Text: KGUP 230153Z AUTO 22003KT 10SM CLR 12/03 A3023 RMK AO2 SLP184 T01170028
Loading
Personal Weather Stations






























Interactive Weather Map
Tropical Storm Tracking
New forecast layout! Learn more

10-Day Weather Forecast

Advertisements
Track Severe Weather on mobile